Time;durP1;ratioP1;P1;durP2;ratioP2;P2;SDS_P1;SDS_P2;PMS_P1;PMS_P2;Temp;Humidity;BMP_temperature;BMP_pressure;BME280_temperature;BME280_humidity;BME280_pressure;Samples;Min_cycle;Max_cycle;Signal;HPM_P1;HPM_P2
2023/04/29 00:00:14;;;;;;;;;;;;;;;13.81;29.34;101442.75;5011302;28;20020;-40
2023/04/29 00:02:40;;;;;;;;;;;;;;;13.78;29.89;101473.84;5008812;28;19995;-40
2023/04/29 00:05:05;;;;;;;;;;;;;;;13.44;31.16;101474.91;5010295;28;20024;-40
2023/04/29 00:07:31;;;;;;;;;;;;;;;14.15;31.14;101550.50;5014393;28;19921;-39
2023/04/29 00:09:56;;;;;;;;;;;;;;;13.74;31.94;101534.31;5011527;28;20028;-40
2023/04/29 00:12:22;;;;;;;;;;;;;;;13.47;32.61;101518.88;5011177;28;19917;-39
2023/04/29 00:14:47;;;;;;;;;;;;;;;13.91;32.71;101572.22;5013297;28;19965;-39
2023/04/29 00:17:12;;;;;;;;;;;;;;;13.69;32.15;101549.00;5013308;28;19921;-40
2023/04/29 00:19:37;;;;;;;;;;;;;;;13.00;33.27;101481.91;5014439;28;20010;-39
2023/04/29 00:22:02;;;;;;;;;;;;;;;13.11;32.50;101490.50;5013127;28;19921;-39
2023/04/29 00:24:28;;;;;;;;;;;;;;;13.11;33.09;101481.84;4993203;28;19971;-39
2023/04/29 00:26:53;;;;;;;;;;;;;;;13.12;33.23;101475.84;5010057;28;19956;-40
2023/04/29 00:29:19;;;;;;;;;;;;;;;13.03;33.79;101466.38;5010918;28;20008;-39
2023/04/29 00:31:44;;;;;;;;;;;;;;;13.14;32.77;101480.13;5011609;28;19921;-40
2023/04/29 00:34:10;;;;;;;;;;;;;;;13.13;33.30;101480.97;5010658;28;20668;-39
2023/04/29 00:36:35;;;;;;;;;;;;;;;13.08;33.32;101474.97;5012425;28;19986;-40
2023/04/29 00:39:02;;;;;;;;;;;;;;;13.02;33.53;101463.78;5012091;28;20059;-40
2023/04/29 00:41:28;;;;;;;;;;;;;;;13.34;33.23;101495.63;5012280;28;19921;-40
2023/04/29 00:43:53;;;;;;;;;;;;;;;13.48;32.39;101502.47;5010199;28;19923;-40
2023/04/29 00:46:18;;;;;;;;;;;;;;;13.42;32.80;101479.22;5013519;28;19920;-40
2023/04/29 00:48:43;;;;;;;;;;;;;;;13.28;32.58;101472.38;5017082;28;19917;-40
2023/04/29 00:51:09;;;;;;;;;;;;;;;13.30;32.99;101474.94;5019678;28;19917;-40
2023/04/29 00:53:34;;;;;;;;;;;;;;;13.54;31.93;101497.28;5025913;28;19924;-40
2023/04/29 00:56:00;;;;;;;;;;;;;;;13.14;33.39;101453.41;5018417;28;19956;-40
2023/04/29 00:58:32;;;;;;;;;;;;;;;13.53;31.83;101493.84;5019440;28;19921;-39
2023/04/29 01:00:57;;;;;;;;;;;;;;;13.39;32.60;101478.34;5018702;28;19923;-40
2023/04/29 01:03:22;;;;;;;;;;;;;;;13.74;32.79;101503.22;5022836;28;20011;-39
2023/04/29 01:05:47;;;;;;;;;;;;;;;13.57;32.45;101476.53;5016805;28;20040;-39
2023/04/29 01:08:13;;;;;;;;;;;;;;;13.47;32.45;101461.94;5019587;28;19955;-39
2023/04/29 01:10:41;;;;;;;;;;;;;;;13.39;32.46;101454.22;5019570;28;19952;-39
2023/04/29 01:13:07;;;;;;;;;;;;;;;13.29;32.55;101447.34;5021309;28;19928;-39
2023/04/29 01:15:43;;;;;;;;;;;;;;;13.48;31.83;101476.59;5016186;28;19921;-39
2023/04/29 01:18:18;;;;;;;;;;;;;;;13.16;32.94;101456.84;5024046;28;20248;-39
2023/04/29 01:20:43;;;;;;;;;;;;;;;13.22;33.19;101477.50;5019301;28;19921;-39
2023/04/29 01:23:08;;;;;;;;;;;;;;;13.07;33.75;101493.97;5024921;28;19916;-39
2023/04/29 01:25:34;;;;;;;;;;;;;;;13.11;33.23;101508.63;5025303;28;19975;-39
2023/04/29 01:27:59;;;;;;;;;;;;;;;13.33;33.03;101527.53;5016166;28;19979;-40
2023/04/29 01:30:27;;;;;;;;;;;;;;;13.19;33.76;101513.75;5018918;28;19916;-39
2023/04/29 01:32:57;;;;;;;;;;;;;;;13.16;33.07;101506.88;5018276;28;19924;-40
2023/04/29 01:35:41;;;;;;;;;;;;;;;13.26;33.14;101515.47;5017431;28;19913;-39
2023/04/29 01:38:10;;;;;;;;;;;;;;;12.83;33.99;101489.69;5018202;28;19924;-39
2023/04/29 01:41:05;;;;;;;;;;;;;;;12.66;34.14;101492.28;5016798;28;19929;-39
2023/04/29 01:43:32;;;;;;;;;;;;;;;13.01;34.33;101550.00;4981452;28;19922;-39
2023/04/29 01:45:58;;;;;;;;;;;;;;;13.06;34.97;101563.78;5019972;28;20325;-39
2023/04/29 01:48:23;;;;;;;;;;;;;;;12.86;35.77;101562.06;5019387;28;19916;-39
2023/04/29 01:50:48;;;;;;;;;;;;;;;12.20;37.60;101538.78;5014911;28;20072;-40
2023/04/29 01:53:14;;;;;;;;;;;;;;;12.33;37.96;101602.53;5014105;28;20331;-40
2023/04/29 01:55:39;;;;;;;;;;;;;;;12.29;40.55;101630.94;5013785;28;19921;-40
2023/04/29 01:58:05;;;;;;;;;;;;;;;12.18;44.60;101663.63;5014859;28;19940;-40
2023/04/29 02:00:30;;;;;;;;;;;;;;;12.38;46.87;101708.47;5020448;28;19927;-40
2023/04/29 02:02:55;;;;;;;;;;;;;;;12.34;48.56;101743.81;5015513;28;19928;-40
2023/04/29 02:05:20;;;;;;;;;;;;;;;12.57;49.46;101784.41;5016984;28;19921;-40
2023/04/29 02:07:46;;;;;;;;;;;;;;;12.42;50.85;101782.59;5017269;28;19913;-40
2023/04/29 02:10:12;;;;;;;;;;;;;;;12.73;51.75;101839.63;5015499;28;20278;-40
2023/04/29 02:12:37;;;;;;;;;;;;;;;12.19;54.44;101799.69;5012812;28;19928;-40
2023/04/29 02:15:02;;;;;;;;;;;;;;;12.65;54.74;101869.75;5014985;28;20555;-40
2023/04/29 02:17:28;;;;;;;;;;;;;;;12.79;55.14;101896.53;5019878;28;20408;-40
2023/04/29 02:19:53;;;;;;;;;;;;;;;12.44;55.06;101868.75;5015310;28;20407;-40
2023/04/29 02:22:19;;;;;;;;;;;;;;;12.40;56.09;101881.66;5016889;28;19998;-40
2023/04/29 02:24:45;;;;;;;;;;;;;;;12.31;57.02;101890.19;5021427;28;19924;-40
2023/04/29 02:27:10;;;;;;;;;;;;;;;12.21;59.10;101906.50;5020485;28;20408;-40
2023/04/29 02:29:35;;;;;;;;;;;;;;;12.42;59.23;101944.56;5014142;28;20365;-40
2023/04/29 02:32:01;;;;;;;;;;;;;;;12.34;61.37;101954.84;5014406;28;19947;-40
2023/04/29 02:34:26;;;;;;;;;;;;;;;12.44;61.35;101977.31;5014883;28;19956;-40
2023/04/29 02:36:52;;;;;;;;;;;;;;;12.52;61.17;101988.59;5014847;28;20282;-40
2023/04/29 02:39:18;;;;;;;;;;;;;;;12.02;63.38;101951.97;5015408;28;20322;-40
2023/04/29 02:41:44;;;;;;;;;;;;;;;12.22;63.47;101975.41;5025099;28;19928;-40
2023/04/29 02:44:09;;;;;;;;;;;;;;;12.23;64.46;101988.34;5024722;28;19921;-40
2023/04/29 02:46:35;;;;;;;;;;;;;;;12.21;64.62;101994.34;5019451;28;19913;-40
2023/04/29 02:49:01;;;;;;;;;;;;;;;12.35;66.00;102026.34;5021192;28;19921;-40
2023/04/29 02:51:26;;;;;;;;;;;;;;;12.23;65.10;102013.31;5017838;28;19917;-40
2023/04/29 02:53:52;;;;;;;;;;;;;;;12.39;65.46;102030.69;5015263;28;20016;-40
2023/04/29 02:56:17;;;;;;;;;;;;;;;12.42;64.80;102033.31;5019694;28;19921;-40
2023/04/29 02:58:42;;;;;;;;;;;;;;;12.41;65.48;102038.47;5014303;28;19929;-40
2023/04/29 03:01:07;;;;;;;;;;;;;;;12.30;65.51;102035.78;5014667;28;20035;-41
2023/04/29 03:03:32;;;;;;;;;;;;;;;11.82;68.13;102000.81;5016553;28;19917;-40
2023/04/29 03:05:58;;;;;;;;;;;;;;;11.73;71.63;102022.22;5014737;28;19927;-40
2023/04/29 03:08:23;;;;;;;;;;;;;;;11.66;78.90;102052.25;5016102;28;20003;-40
2023/04/29 03:10:48;;;;;;;;;;;;;;;11.51;83.35;102062.38;5014112;28;19925;-40
2023/04/29 03:13:13;;;;;;;;;;;;;;;11.71;86.09;102107.41;5012967;28;20393;-40
2023/04/29 03:15:38;;;;;;;;;;;;;;;11.46;90.03;102103.63;5013833;28;20423;-40
2023/04/29 03:18:04;;;;;;;;;;;;;;;11.65;94.47;102152.91;5016074;28;20362;-40
2023/04/29 03:20:29;;;;;;;;;;;;;;;11.80;94.77;102189.28;5016047;28;20400;-40
2023/04/29 03:22:54;;;;;;;;;;;;;;;11.59;96.85;102178.66;5010660;28;19924;-40
2023/04/29 03:25:20;;;;;;;;;;;;;;;11.55;97.52;102188.06;5015415;28;19975;-40
2023/04/29 03:27:46;;;;;;;;;;;;;;;11.33;99.70;102180.81;5015976;28;19921;-40
2023/04/29 03:30:11;;;;;;;;;;;;;;;11.39;100.00;102201.56;5013567;28;19917;-40
2023/04/29 03:32:36;;;;;;;;;;;;;;;11.36;100.00;102222.16;5014076;28;19928;-40
2023/04/29 03:35:02;;;;;;;;;;;;;;;11.26;100.00;102222.00;5011537;28;19945;-40
2023/04/29 03:37:27;;;;;;;;;;;;;;;11.41;100.00;102257.53;5016006;28;19947;-40
2023/04/29 03:39:52;;;;;;;;;;;;;;;11.21;100.00;102251.16;5019838;28;19968;-40
2023/04/29 03:42:18;;;;;;;;;;;;;;;11.30;100.00;102274.53;5021263;28;19979;-40
2023/04/29 03:44:43;;;;;;;;;;;;;;;11.52;100.00;102314.50;5020700;28;20120;-40
2023/04/29 03:47:08;;;;;;;;;;;;;;;11.44;100.00;102305.75;5020175;28;20169;-40
2023/04/29 03:49:33;;;;;;;;;;;;;;;11.63;100.00;102333.63;5029324;28;19927;-40
2023/04/29 03:51:59;;;;;;;;;;;;;;;11.38;100.00;102298.78;5019215;28;19921;-40
2023/04/29 03:54:24;;;;;;;;;;;;;;;11.39;100.00;102303.06;5020491;28;19978;-40
2023/04/29 03:56:49;;;;;;;;;;;;;;;11.30;100.00;102301.19;5018630;28;20105;-40
2023/04/29 03:59:15;;;;;;;;;;;;;;;11.60;100.00;102336.13;5022888;28;19932;-40
2023/04/29 04:01:40;;;;;;;;;;;;;;;11.02;100.00;102286.06;5018667;28;19921;-40
2023/04/29 04:04:05;;;;;;;;;;;;;;;11.38;100.00;102334.91;5019070;28;19960;-40
2023/04/29 04:06:30;;;;;;;;;;;;;;;11.29;100.00;102327.84;5020026;28;20011;-40
2023/04/29 04:08:56;;;;;;;;;;;;;;;11.63;100.00;102367.19;5017862;28;19920;-40
2023/04/29 04:11:21;;;;;;;;;;;;;;;11.66;100.00;102356.91;5018559;28;19927;-40
2023/04/29 04:13:46;;;;;;;;;;;;;;;11.80;100.00;102357.13;5022029;28;19964;-40
2023/04/29 04:16:11;;;;;;;;;;;;;;;11.64;100.00;102327.59;5018580;28;20021;-40
2023/04/29 04:18:37;;;;;;;;;;;;;;;11.37;100.00;102301.31;5017667;28;19976;-40
2023/04/29 04:21:08;;;;;;;;;;;;;;;11.55;100.00;102332.59;5022650;28;19934;-40
2023/04/29 04:23:34;;;;;;;;;;;;;;;11.41;100.00;102308.28;5018572;28;20084;-40
2023/04/29 04:25:59;;;;;;;;;;;;;;;11.42;100.00;102315.16;5019299;28;19917;-40
2023/04/29 04:28:24;;;;;;;;;;;;;;;11.44;100.00;102328.97;5019480;28;19944;-40
2023/04/29 04:30:50;;;;;;;;;;;;;;;11.36;100.00;102320.19;5004687;28;19933;-40
2023/04/29 04:33:15;;;;;;;;;;;;;;;11.45;100.00;102338.47;5024053;28;19994;-40
2023/04/29 04:35:41;;;;;;;;;;;;;;;11.46;100.00;102328.16;5017915;28;20239;-40
2023/04/29 04:38:06;;;;;;;;;;;;;;;11.51;100.00;102339.41;5019792;28;20243;-40
2023/04/29 04:40:32;;;;;;;;;;;;;;;11.61;100.00;102353.38;5022177;28;19968;-40
2023/04/29 04:42:57;;;;;;;;;;;;;;;11.57;100.00;102341.25;5018757;28;20082;-40
2023/04/29 04:45:22;;;;;;;;;;;;;;;11.34;100.00;102316.75;5020152;28;20304;-40
2023/04/29 04:47:47;;;;;;;;;;;;;;;11.25;100.00;102317.44;5018995;28;20024;-40
2023/04/29 04:50:13;;;;;;;;;;;;;;;11.40;100.00;102353.84;5019505;28;20012;-40
2023/04/29 04:52:38;;;;;;;;;;;;;;;11.57;100.00;102361.91;5016231;28;19921;-40
2023/04/29 04:55:03;;;;;;;;;;;;;;;11.23;100.00;102330.31;5016152;28;19920;-40
2023/04/29 04:57:28;;;;;;;;;;;;;;;11.33;100.00;102349.41;5016811;28;19991;-40
2023/04/29 04:59:53;;;;;;;;;;;;;;;11.20;100.00;102340.59;5015222;28;19948;-40
2023/04/29 05:02:19;;;;;;;;;;;;;;;11.25;100.00;102364.75;5015284;28;19968;-40
2023/04/29 05:04:44;;;;;;;;;;;;;;;10.99;100.00;102353.03;5016779;28;20010;-40
2023/04/29 05:07:10;;;;;;;;;;;;;;;11.27;100.00;102418.97;5015663;28;19948;-40
2023/04/29 05:09:35;;;;;;;;;;;;;;;11.10;100.00;102416.03;5016429;28;19925;-40
2023/04/29 05:12:00;;;;;;;;;;;;;;;10.79;100.00;102410.25;5015642;28;20276;-40
2023/04/29 05:14:25;;;;;;;;;;;;;;;10.95;100.00;102475.00;5016841;28;19917;-40
2023/04/29 05:16:51;;;;;;;;;;;;;;;10.91;100.00;102492.16;5018008;28;20230;-40
2023/04/29 05:19:17;;;;;;;;;;;;;;;11.09;100.00;102545.84;5020546;28;19924;-40
2023/04/29 05:21:42;;;;;;;;;;;;;;;11.08;100.00;102567.31;5022255;28;19917;-40
2023/04/29 05:24:07;;;;;;;;;;;;;;;11.09;100.00;102600.03;5015699;28;19913;-40
2023/04/29 05:26:32;;;;;;;;;;;;;;;11.21;100.00;102633.84;5016480;28;19921;-40
2023/04/29 05:28:58;;;;;;;;;;;;;;;11.10;100.00;102637.88;5013806;28;20325;-40
2023/04/29 05:31:24;;;;;;;;;;;;;;;11.00;100.00;102651.41;5018859;28;19921;-40
2023/04/29 05:33:49;;;;;;;;;;;;;;;10.74;100.00;102643.88;5010913;28;19955;-40
2023/04/29 05:36:14;;;;;;;;;;;;;;;11.27;100.00;102733.75;5014277;28;20397;-40
2023/04/29 05:38:40;;;;;;;;;;;;;;;11.23;100.00;102743.13;5015320;28;20381;-40
2023/04/29 05:41:05;;;;;;;;;;;;;;;11.40;100.00;102771.91;5015150;28;20408;-40
2023/04/29 05:43:30;;;;;;;;;;;;;;;11.23;100.00;102743.13;4995402;28;20336;-40
2023/04/29 05:45:55;;;;;;;;;;;;;;;11.14;100.00;102745.47;5015075;28;19916;-40
2023/04/29 05:48:20;;;;;;;;;;;;;;;11.57;100.00;102811.09;5012889;28;19932;-40
2023/04/29 05:50:47;;;;;;;;;;;;;;;11.35;100.00;102773.53;5015403;28;19917;-40
2023/04/29 05:53:12;;;;;;;;;;;;;;;11.37;100.00;102776.16;5014717;28;19921;-40
2023/04/29 05:55:38;;;;;;;;;;;;;;;10.97;100.00;102718.34;5015527;28;20370;-40
2023/04/29 05:58:03;;;;;;;;;;;;;;;11.52;100.00;102785.16;5011387;28;20014;-40
2023/04/29 06:00:28;;;;;;;;;;;;;;;11.43;100.00;102766.00;5016146;28;19975;-40
2023/04/29 06:02:54;;;;;;;;;;;;;;;11.38;100.00;102754.66;5015345;28;19921;-40
2023/04/29 06:05:19;;;;;;;;;;;;;;;11.53;100.00;102762.78;5013636;28;19921;-40
2023/04/29 06:07:44;;;;;;;;;;;;;;;11.37;100.00;102724.53;5015961;28;19989;-40
2023/04/29 06:10:09;;;;;;;;;;;;;;;11.27;100.00;102721.72;5014373;28;19925;-40
2023/04/29 06:12:35;;;;;;;;;;;;;;;11.85;100.00;102775.59;5021303;28;19956;-40
2023/04/29 06:15:00;;;;;;;;;;;;;;;11.43;100.00;102714.38;5016195;28;19928;-40
2023/04/29 06:17:28;;;;;;;;;;;;;;;11.15;100.00;102672.38;5015301;28;20003;-40
2023/04/29 06:19:53;;;;;;;;;;;;;;;11.17;100.00;102673.28;5015117;28;19921;-40
2023/04/29 06:22:18;;;;;;;;;;;;;;;11.26;100.00;102694.16;5014166;28;19928;-40
2023/04/29 06:24:43;;;;;;;;;;;;;;;11.40;100.00;102714.28;5016959;28;20028;-40
2023/04/29 06:27:09;;;;;;;;;;;;;;;11.50;100.00;102721.41;5013034;28;20011;-40
2023/04/29 06:29:34;;;;;;;;;;;;;;;11.35;100.00;102703.84;5015025;28;20435;-40
2023/04/29 06:31:59;;;;;;;;;;;;;;;11.39;100.00;102707.38;5009331;28;20563;-40
2023/04/29 06:34:25;;;;;;;;;;;;;;;11.50;100.00;102711.97;5012177;28;19921;-40
2023/04/29 06:36:50;;;;;;;;;;;;;;;11.36;100.00;102702.13;5014792;28;19920;-40
2023/04/29 06:39:15;;;;;;;;;;;;;;;11.38;100.00;102703.03;5016950;28;19925;-40
2023/04/29 06:41:41;;;;;;;;;;;;;;;11.58;100.00;102730.19;5015130;28;20403;-40
2023/04/29 06:44:06;;;;;;;;;;;;;;;11.57;100.00;102723.31;5014609;28;20372;-40
2023/04/29 06:46:33;;;;;;;;;;;;;;;11.27;100.00;102683.03;5014586;28;20278;-40
2023/04/29 06:48:58;;;;;;;;;;;;;;;11.24;100.00;102682.97;5014885;28;20036;-40
2023/04/29 06:51:23;;;;;;;;;;;;;;;11.07;100.00;102673.91;5014587;28;20008;-40
2023/04/29 06:53:49;;;;;;;;;;;;;;;11.11;100.00;102696.38;5014090;28;20019;-40
2023/04/29 06:56:14;;;;;;;;;;;;;;;11.43;100.00;102750.50;5016419;28;19967;-40
2023/04/29 06:58:39;;;;;;;;;;;;;;;11.30;100.00;102742.44;5017773;28;19983;-40
2023/04/29 07:01:06;;;;;;;;;;;;;;;11.22;100.00;102751.72;5014665;28;20094;-40
2023/04/29 07:03:31;;;;;;;;;;;;;;;11.42;100.00;102790.03;5021516;28;20088;-40
2023/04/29 07:05:56;;;;;;;;;;;;;;;11.44;100.00;102793.53;5014901;28;19943;-40
2023/04/29 07:08:22;;;;;;;;;;;;;;;11.46;100.00;102791.88;5018839;28;20286;-40
2023/04/29 07:10:54;;;;;;;;;;;;;;;11.41;100.00;102791.75;5013993;28;20694;-40
2023/04/29 07:13:19;;;;;;;;;;;;;;;11.28;100.00;102785.38;5019737;28;19928;-40
2023/04/29 07:15:45;;;;;;;;;;;;;;;11.32;100.00;102790.66;5013131;28;20003;-40
2023/04/29 07:18:10;;;;;;;;;;;;;;;11.06;100.00;102790.81;5013994;28;19929;-40
2023/04/29 07:20:36;;;;;;;;;;;;;;;11.11;100.00;102835.69;5016895;28;19959;-40
2023/04/29 07:23:01;;;;;;;;;;;;;;;11.15;100.00;102858.13;5013752;28;19982;-40
2023/04/29 07:25:28;;;;;;;;;;;;;;;11.08;100.00;102851.97;5012491;28;20432;-40
2023/04/29 07:27:53;;;;;;;;;;;;;;;11.46;100.00;102926.09;5007819;28;20058;-40
2023/04/29 07:30:19;;;;;;;;;;;;;;;11.28;100.00;102900.66;5013112;28;19921;-40
2023/04/29 07:32:44;;;;;;;;;;;;;;;11.35;100.00;102918.03;5016049;28;19921;-40
2023/04/29 07:35:09;;;;;;;;;;;;;;;11.25;100.00;102906.59;5012349;28;19928;-40
2023/04/29 07:37:34;;;;;;;;;;;;;;;11.26;100.00;102910.91;5016139;28;20440;-40
2023/04/29 07:40:00;;;;;;;;;;;;;;;11.24;100.00;102914.28;5013336;28;19937;-40
2023/04/29 07:42:25;;;;;;;;;;;;;;;11.07;100.00;102903.50;5012313;28;20070;-41
2023/04/29 07:44:50;;;;;;;;;;;;;;;11.70;100.00;102993.91;5012692;28;20627;-40
2023/04/29 07:47:15;;;;;;;;;;;;;;;11.55;100.00;102959.91;5013183;28;19964;-40
2023/04/29 07:49:41;;;;;;;;;;;;;;;11.42;100.00;102945.78;5013194;28;19965;-41
2023/04/29 07:52:08;;;;;;;;;;;;;;;11.42;100.00;102939.75;5013133;28;19913;-40
2023/04/29 07:54:34;;;;;;;;;;;;;;;11.29;100.00;102934.25;5014114;28;20008;-41
2023/04/29 07:57:00;;;;;;;;;;;;;;;11.05;100.00;102912.91;5016811;28;20031;-41
2023/04/29 07:59:25;;;;;;;;;;;;;;;11.27;100.00;102953.97;5017463;28;19925;-41
2023/04/29 08:01:51;;;;;;;;;;;;;;;11.35;100.00;102977.41;5015517;28;19987;-41
2023/04/29 08:04:17;;;;;;;;;;;;;;;11.58;100.00;103009.03;5017247;28;19917;-41
2023/04/29 08:06:42;;;;;;;;;;;;;;;11.30;100.00;102982.44;5013907;28;19924;-41
2023/04/29 08:09:07;;;;;;;;;;;;;;;11.12;100.00;102970.72;5013681;28;20575;-41
2023/04/29 08:11:32;;;;;;;;;;;;;;;11.03;100.00;102981.63;5013040;28;19940;-41
2023/04/29 08:13:59;;;;;;;;;;;;;;;11.32;100.00;103046.13;5013692;28;20191;-40
2023/04/29 08:16:25;;;;;;;;;;;;;;;11.26;100.00;103052.84;5013653;28;19916;-41
2023/04/29 08:18:50;;;;;;;;;;;;;;;11.34;100.00;103071.16;5013255;28;19921;-41
2023/04/29 08:21:15;;;;;;;;;;;;;;;11.58;100.00;103111.44;5014067;28;19952;-41
2023/04/29 08:23:40;;;;;;;;;;;;;;;11.57;100.00;103105.41;5012176;28;19920;-41
2023/04/29 08:26:06;;;;;;;;;;;;;;;11.86;100.00;103134.66;5013495;28;20263;-41
2023/04/29 08:28:31;;;;;;;;;;;;;;;11.85;100.00;103111.38;5014983;28;20255;-41
2023/04/29 08:30:56;;;;;;;;;;;;;;;11.55;100.00;103050.25;5017542;28;20164;-41
2023/04/29 08:33:22;;;;;;;;;;;;;;;11.83;100.00;103076.88;5016238;28;20021;-41
2023/04/29 08:35:47;;;;;;;;;;;;;;;12.17;100.00;103103.69;5017088;28;20136;-41
2023/04/29 08:38:12;;;;;;;;;;;;;;;11.76;100.00;103026.75;5014263;28;19917;-40
2023/04/29 08:40:41;;;;;;;;;;;;;;;11.75;100.00;103011.22;5015436;28;20007;-41
2023/04/29 08:43:08;;;;;;;;;;;;;;;11.86;100.00;103025.28;5016522;28;19917;-41
2023/04/29 08:45:33;;;;;;;;;;;;;;;11.66;100.00;102991.19;5014919;28;19976;-41
2023/04/29 08:48:00;;;;;;;;;;;;;;;11.87;100.00;102998.63;4994355;28;20407;-41
2023/04/29 08:50:25;;;;;;;;;;;;;;;11.78;100.00;102994.09;5017637;28;20377;-41
2023/04/29 08:52:50;;;;;;;;;;;;;;;11.93;100.00;102991.97;5006216;28;19959;-41
2023/04/29 08:55:17;;;;;;;;;;;;;;;12.32;100.00;103016.22;5018435;28;20039;-41
2023/04/29 08:57:42;;;;;;;;;;;;;;;12.08;100.00;102975.09;5020818;28;19928;-40
2023/04/29 09:00:09;;;;;;;;;;;;;;;12.16;100.00;102959.78;4998833;28;20317;-40
2023/04/29 09:02:34;;;;;;;;;;;;;;;11.84;100.00;102903.88;5014771;28;20293;-41
2023/04/29 09:05:00;;;;;;;;;;;;;;;11.74;100.00;102894.13;5016418;28;19982;-40
2023/04/29 09:07:27;;;;;;;;;;;;;;;11.95;100.00;102906.75;5014021;28;20240;-41
2023/04/29 09:09:52;;;;;;;;;;;;;;;12.31;100.00;102937.78;5016146;28;19956;-40
2023/04/29 09:12:17;;;;;;;;;;;;;;;12.45;100.00;102920.03;5012364;28;19967;-41
2023/04/29 09:14:43;;;;;;;;;;;;;;;12.39;100.00;102894.03;4997551;28;20007;-41
2023/04/29 09:17:08;;;;;;;;;;;;;;;12.45;100.00;102886.41;5019532;28;19928;-41
2023/04/29 09:19:34;;;;;;;;;;;;;;;12.08;100.00;102828.69;5016448;28;20359;-41
2023/04/29 09:22:00;;;;;;;;;;;;;;;12.79;100.00;102889.72;5015292;28;19917;-41
2023/04/29 09:24:29;;;;;;;;;;;;;;;12.49;100.00;102833.91;5016030;28;19924;-41
2023/04/29 09:26:54;;;;;;;;;;;;;;;12.62;100.00;102818.69;5015929;28;19949;-41
2023/04/29 09:29:19;;;;;;;;;;;;;;;12.83;100.00;102841.53;5017112;28;20365;-41
2023/04/29 09:31:45;;;;;;;;;;;;;;;12.81;100.00;102815.63;5014820;28;20103;-41
2023/04/29 09:34:10;;;;;;;;;;;;;;;13.48;100.00;102873.00;4999002;28;20230;-41
2023/04/29 09:36:46;;;;;;;;;;;;;;;13.18;100.00;102801.69;5014472;28;20400;-41
2023/04/29 09:39:16;;;;;;;;;;;;;;;12.96;100.00;102756.41;5013553;28;19925;-41
2023/04/29 09:41:41;;;;;;;;;;;;;;;12.61;100.00;102705.72;5014435;28;20353;-40
2023/04/29 09:44:07;;;;;;;;;;;;;;;12.94;100.00;102745.16;5015920;28;19927;-40
2023/04/29 09:46:32;;;;;;;;;;;;;;;13.81;100.00;102804.47;5020695;28;20486;-41
2023/04/29 09:48:58;;;;;;;;;;;;;;;13.22;98.39;102682.66;5016242;28;19928;-41
2023/04/29 09:51:23;;;;;;;;;;;;;;;13.58;97.40;102687.56;5014913;28;19917;-41
2023/04/29 09:53:49;;;;;;;;;;;;;;;13.22;91.68;102598.09;5016138;28;19921;-41
2023/04/29 09:56:14;;;;;;;;;;;;;;;13.68;87.35;102603.94;5016253;28;19920;-41
2023/04/29 09:58:39;;;;;;;;;;;;;;;13.53;85.16;102505.38;5019004;28;19933;-41
2023/04/29 10:01:05;;;;;;;;;;;;;;;13.52;85.44;102464.75;5018371;28;19925;-41
2023/04/29 10:03:32;;;;;;;;;;;;;;;13.65;85.99;102470.97;5020282;28;20340;-40
2023/04/29 10:05:57;;;;;;;;;;;;;;;13.75;83.21;102468.50;5013097;28;19920;-40
2023/04/29 10:08:22;;;;;;;;;;;;;;;13.93;81.43;102465.19;5014498;28;19927;-41
2023/04/29 10:10:48;;;;;;;;;;;;;;;13.92;78.12;102434.97;5015071;28;19917;-40
2023/04/29 10:13:14;;;;;;;;;;;;;;;13.51;76.66;102360.31;5014201;28;20298;-41
2023/04/29 10:15:41;;;;;;;;;;;;;;;13.00;77.12;102306.25;5012425;28;19987;-40
2023/04/29 10:18:16;;;;;;;;;;;;;;;13.21;77.41;102328.94;5013138;28;20101;-41
2023/04/29 10:20:44;;;;;;;;;;;;;;;13.24;76.67;102337.59;5015548;28;20435;-41
2023/04/29 10:23:09;;;;;;;;;;;;;;;13.41;75.02;102347.25;5014658;28;19976;-41
2023/04/29 10:25:34;;;;;;;;;;;;;;;13.33;74.77;102314.41;5014579;28;20033;-41
2023/04/29 10:27:59;;;;;;;;;;;;;;;14.02;70.92;102337.44;5015803;28;19982;-41
2023/04/29 10:30:25;;;;;;;;;;;;;;;14.04;67.97;102278.72;5022413;28;19963;-41
2023/04/29 10:32:50;;;;;;;;;;;;;;;14.17;64.77;102233.00;5012610;28;20006;-41
2023/04/29 10:35:17;;;;;;;;;;;;;;;14.74;60.95;102210.78;5014890;28;19913;-41
2023/04/29 10:37:43;;;;;;;;;;;;;;;13.84;60.48;102084.28;5021011;28;20014;-40
2023/04/29 10:40:12;;;;;;;;;;;;;;;14.24;61.04;102107.75;5015903;28;19925;-40
2023/04/29 10:42:45;;;;;;;;;;;;;;;14.23;58.12;102091.34;5014522;28;19944;-40
2023/04/29 10:45:20;;;;;;;;;;;;;;;13.43;58.34;101998.66;5013967;28;19921;-40
2023/04/29 10:48:11;;;;;;;;;;;;;;;14.11;54.90;102036.00;5014065;28;20393;-41
2023/04/29 10:50:48;;;;;;;;;;;;;;;14.25;53.32;101968.63;5013589;28;19921;-40
2023/04/29 10:53:14;;;;;;;;;;;;;;;14.44;50.47;101928.88;5013131;28;19921;-40
2023/04/29 10:55:39;;;;;;;;;;;;;;;14.67;48.63;101925.44;5014788;28;19928;-41
2023/04/29 10:58:04;;;;;;;;;;;;;;;14.30;47.80;101858.00;5014426;28;19921;-41
2023/04/29 11:00:33;;;;;;;;;;;;;;;14.67;44.82;101821.69;5015157;28;19917;-40
2023/04/29 11:02:59;;;;;;;;;;;;;;;14.26;44.62;101724.13;5013758;28;19925;-41
2023/04/29 11:05:31;;;;;;;;;;;;;;;14.14;44.13;101644.66;5015957;28;20220;-41
2023/04/29 11:08:11;;;;;;;;;;;;;;;15.00;44.19;101633.78;5014429;28;19925;-41
2023/04/29 11:10:40;;;;;;;;;;;;;;;14.15;47.11;101494.34;5022592;28;19917;-41
2023/04/29 11:13:25;;;;;;;;;;;;;;;14.37;46.28;101489.03;5013315;28;20421;-41
2023/04/29 11:15:51;;;;;;;;;;;;;;;13.86;46.47;101478.97;5013555;28;19920;-41
2023/04/29 11:18:16;;;;;;;;;;;;;;;13.83;44.76;101506.66;5018480;28;20300;-40
2023/04/29 11:21:00;;;;;;;;;;;;;;;14.39;43.86;101549.47;5024883;28;19953;-40
2023/04/29 11:23:26;;;;;;;;;;;;;;;13.67;45.79;101480.81;5018999;28;19975;-41
2023/04/29 11:25:51;;;;;;;;;;;;;;;14.41;43.83;101521.81;5013835;28;19929;-41
2023/04/29 11:28:16;;;;;;;;;;;;;;;14.32;45.17;101480.41;5013420;28;19923;-41
2023/04/29 11:30:42;;;;;;;;;;;;;;;14.43;45.22;101478.59;5015239;28;20457;-41
2023/04/29 11:33:07;;;;;;;;;;;;;;;14.07;45.78;101449.50;5012858;28;20098;-41
2023/04/29 11:35:33;;;;;;;;;;;;;;;14.23;47.77;101425.19;5012213;28;19983;-41
2023/04/29 11:37:58;;;;;;;;;;;;;;;15.55;47.98;101455.81;5013871;28;20345;-41
2023/04/29 11:40:23;;;;;;;;;;;;;;;15.41;55.10;101334.81;5010147;28;19921;-41
2023/04/29 11:42:48;;;;;;;;;;;;;;;14.64;55.86;101276.16;5013001;28;19920;-41
2023/04/29 11:45:16;;;;;;;;;;;;;;;14.49;55.37;101276.31;5023049;28;19920;-41
2023/04/29 11:47:41;;;;;;;;;;;;;;;15.84;53.02;101338.53;5016993;28;20602;-41
2023/04/29 11:50:08;;;;;;;;;;;;;;;15.67;60.34;101255.66;5017082;28;19990;-41
2023/04/29 11:52:43;;;;;;;;;;;;;;;15.53;63.67;101190.94;5015053;28;19917;-41
2023/04/29 11:55:09;;;;;;;;;;;;;;;15.22;66.36;101149.06;5014151;28;19917;-41
2023/04/29 11:57:34;;;;;;;;;;;;;;;15.39;71.10;101115.88;5016996;28;20262;-41
2023/04/29 12:00:00;;;;;;;;;;;;;;;15.76;74.81;101075.38;5013517;28;19925;-41
2023/04/29 12:02:31;;;;;;;;;;;;;;;14.69;77.46;100995.13;5011569;28;19928;-45
2023/04/29 12:04:57;;;;;;;;;;;;;;;15.00;73.85;101018.81;5024946;28;19964;-41
2023/04/29 12:07:22;;;;;;;;;;;;;;;14.22;75.21;101013.13;5022674;28;20660;-41
2023/04/29 12:09:47;;;;;;;;;;;;;;;14.39;72.63;101043.97;5022382;28;20506;-41
2023/04/29 12:12:13;;;;;;;;;;;;;;;14.67;74.33;101052.22;5023892;28;19921;-41
2023/04/29 12:14:38;;;;;;;;;;;;;;;14.73;75.30;101040.88;5023995;28;19921;-41
2023/04/29 12:17:04;;;;;;;;;;;;;;;15.31;76.12;101047.66;5030969;28;19928;-41
2023/04/29 12:19:29;;;;;;;;;;;;;;;15.48;77.64;101022.22;5015673;28;19975;-42
2023/04/29 12:21:57;;;;;;;;;;;;;;;15.00;80.62;100980.75;5015327;28;19964;-41
2023/04/29 12:24:22;;;;;;;;;;;;;;;14.93;81.74;100968.78;5014361;28;20403;-41